Hedley, Canada
Current Conditions -  °F | °C
As of 5:00 PM on Tuesday 27 Jan 2015 (Local Time) from CYDC Reporting Station
Broken Clouds Broken Clouds  
Wind Chill: 34°   Ceiling: 5000
Heat Index: 34°   Visibility: 15mi
Dew Point: 32°   Wind: 0mph
Humidity: 93%   Direction: NA
Pressure: 30.07"   Gusts: NA
Location:  49.35°N, 120.08°W
Report Text: CYDC 280100Z 00000KT 15SM FEW015 BKN050 BKN070 01/M00 A3007 RMK ST1SC4AC1 LAST OBS/NEXT 28 1500UTC SLP205
Loading
Personal Weather Stations






























Interactive Weather Map New forecast layout! Learn more

10-Day Weather Forecast

Advertisements
Track Severe Weather on mobile